Time;durP1;ratioP1;P1;durP2;ratioP2;P2;SDS_P1;SDS_P2;PMS_P1;PMS_P2;Temp;Humidity;BMP_temperature;BMP_pressure;BME280_temperature;BME280_humidity;BME280_pressure;Samples;Min_cycle;Max_cycle;Signal;HPM_P1;HPM_P2
2023/10/21 00:00:35;;;;;;;9.27;6.43;;;;;;;7.96;100.00;98394.06;5051494;28;20240;-63
2023/10/21 00:03:03;;;;;;;9.63;6.40;;;;;;;7.95;100.00;98385.53;5051572;28;20685;-64
2023/10/21 00:05:31;;;;;;;8.60;6.70;;;;;;;7.96;100.00;98378.66;5051134;28;20202;-63
2023/10/21 00:08:01;;;;;;;10.67;7.10;;;;;;;7.96;100.00;98376.09;5051220;28;20619;-64
2023/10/21 00:10:29;;;;;;;10.50;6.60;;;;;;;7.94;100.00;98380.44;5051292;28;20210;-64
2023/10/21 00:12:57;;;;;;;10.50;7.10;;;;;;;7.95;100.00;98382.09;5050288;28;20234;-65
2023/10/21 00:15:25;;;;;;;9.93;6.30;;;;;;;7.97;100.00;98388.03;5042693;28;20666;-65
2023/10/21 00:17:53;;;;;;;10.10;7.17;;;;;;;7.94;100.00;98383.81;5051346;28;20213;-63
2023/10/21 00:20:21;;;;;;;10.77;6.53;;;;;;;7.94;100.00;98383.81;5050921;28;20568;-63
2023/10/21 00:22:49;;;;;;;10.37;7.23;;;;;;;7.93;100.00;98389.84;5050876;28;20296;-64
2023/10/21 00:25:19;;;;;;;11.40;6.90;;;;;;;7.93;100.00;98406.97;5051255;28;20647;-64
2023/10/21 00:27:49;;;;;;;11.80;7.50;;;;;;;7.93;100.00;98415.50;5051093;28;20657;-65
2023/10/21 00:30:16;;;;;;;9.00;6.63;;;;;;;7.92;100.00;98405.28;5050821;28;20279;-64
2023/10/21 00:32:44;;;;;;;14.17;7.30;;;;;;;7.92;100.00;98406.13;5050935;28;20202;-64
2023/10/21 00:35:13;;;;;;;10.53;7.43;;;;;;;7.95;100.00;98418.00;5050808;28;20205;-64
2023/10/21 00:37:41;;;;;;;12.93;7.87;;;;;;;7.95;100.00;98420.56;5050789;28;20225;-64
2023/10/21 00:40:10;;;;;;;9.47;7.53;;;;;;;7.97;100.00;98413.69;5050860;28;20292;-64
2023/10/21 00:42:39;;;;;;;10.23;7.57;;;;;;;7.99;100.00;98396.53;5050780;28;20205;-64
2023/10/21 00:45:08;;;;;;;11.47;7.33;;;;;;;7.98;100.00;98397.41;5051047;28;20244;-65
2023/10/21 00:47:36;;;;;;;13.83;8.50;;;;;;;7.99;100.00;98402.50;5050905;28;20660;-64
2023/10/21 00:50:05;;;;;;;11.60;8.10;;;;;;;8.01;100.00;98410.16;5050834;28;20206;-64
2023/10/21 00:52:37;;;;;;;9.90;7.20;;;;;;;8.02;100.00;98408.41;5050556;28;20293;-63
2023/10/21 00:55:08;;;;;;;13.00;8.23;;;;;;;8.03;100.00;98408.41;5051073;28;20693;-64
2023/10/21 00:57:37;;;;;;;12.47;8.60;;;;;;;8.04;100.00;98412.63;5050733;28;20699;-67
2023/10/21 01:00:11;;;;;;;14.20;9.30;;;;;;;8.05;100.00;98411.75;5050857;28;20566;-63
2023/10/21 01:02:42;;;;;;;13.83;8.57;;;;;;;8.05;100.00;98419.44;5050711;28;20202;-64
2023/10/21 01:05:12;;;;;;;12.50;8.40;;;;;;;8.07;100.00;98420.25;5050586;28;20202;-63
2023/10/21 01:07:44;;;;;;;15.40;8.30;;;;;;;8.10;100.00;98414.19;5050797;28;20206;-65
2023/10/21 01:10:12;;;;;;;13.70;8.57;;;;;;;8.05;100.00;98398.91;5050944;28;20627;-64
2023/10/21 01:12:40;;;;;;;10.97;8.17;;;;;;;8.09;100.00;98413.34;5050175;28;20233;-63
2023/10/21 01:15:11;;;;;;;14.50;8.67;;;;;;;8.09;100.00;98413.34;5050062;28;20206;-64
2023/10/21 01:17:39;;;;;;;12.23;8.10;;;;;;;8.07;100.00;98424.53;5050274;28;20230;-64
2023/10/21 01:20:09;;;;;;;14.67;8.67;;;;;;;8.07;100.00;98420.25;5050776;28;20283;-65
2023/10/21 01:22:37;;;;;;;12.60;8.60;;;;;;;8.09;100.00;98417.63;5050782;28;20201;-65
2023/10/21 01:25:07;;;;;;;15.57;8.47;;;;;;;8.10;100.00;98416.75;5050292;28;20194;-64
2023/10/21 01:27:35;;;;;;;12.00;8.70;;;;;;;8.08;100.00;98411.66;5050482;28;20276;-63
2023/10/21 01:30:05;;;;;;;13.10;9.20;;;;;;;8.09;100.00;98410.78;5050268;28;20202;-64
2023/10/21 01:32:33;;;;;;;12.43;8.67;;;;;;;8.08;100.00;98406.53;5051059;28;20305;-61
2023/10/21 01:35:01;;;;;;;13.70;8.33;;;;;;;8.10;100.00;98415.03;5054093;28;20202;-64
2023/10/21 01:37:29;;;;;;;9.73;7.50;;;;;;;8.09;100.00;98421.03;5053949;28;20571;-66
2023/10/21 01:39:57;;;;;;;11.47;8.13;;;;;;;8.10;100.00;98414.19;5053917;28;20260;-65
2023/10/21 01:42:26;;;;;;;14.83;9.73;;;;;;;8.10;100.00;98409.91;5053119;28;20208;-65
2023/10/21 01:44:55;;;;;;;11.77;8.50;;;;;;;8.12;100.00;98413.25;5054133;28;20209;-63
2023/10/21 01:47:23;;;;;;;13.50;8.70;;;;;;;8.13;100.00;98414.94;5053555;28;20233;-65
2023/10/21 01:49:51;;;;;;;12.33;8.60;;;;;;;8.13;100.00;98409.81;5053817;28;20687;-64
2023/10/21 01:52:19;;;;;;;12.33;8.13;;;;;;;8.13;100.00;98414.09;5053403;28;20209;-65
2023/10/21 01:54:47;;;;;;;11.73;8.73;;;;;;;8.14;100.00;98426.06;5053665;28;20542;-64
2023/10/21 01:57:15;;;;;;;14.13;8.87;;;;;;;8.10;100.00;98417.59;5053696;28;20621;-66
2023/10/21 01:59:47;;;;;;;13.67;8.80;;;;;;;8.10;100.00;98422.75;5053366;28;20209;-65
2023/10/21 02:02:15;;;;;;;11.60;8.47;;;;;;;8.12;100.00;98423.53;5052997;28;20217;-64
2023/10/21 02:04:43;;;;;;;13.73;8.67;;;;;;;8.13;100.00;98426.91;5039739;28;20615;-65
2023/10/21 02:07:11;;;;;;;12.07;9.13;;;;;;;8.13;100.00;98420.06;5053496;28;20308;-63
2023/10/21 02:09:39;;;;;;;12.83;8.57;;;;;;;8.13;100.00;98425.19;5053434;28;20665;-66
2023/10/21 02:12:09;;;;;;;12.00;8.50;;;;;;;8.11;100.00;98426.97;5053078;28;20293;-65
2023/10/21 02:14:37;;;;;;;14.13;9.33;;;;;;;8.13;100.00;98430.31;5052883;28;20845;-64
2023/10/21 02:17:06;;;;;;;10.80;8.70;;;;;;;8.11;100.00;98426.97;5053014;28;20316;-65
2023/10/21 02:19:34;;;;;;;13.33;9.53;;;;;;;8.11;100.00;98421.84;5053388;28;20216;-64
2023/10/21 02:22:03;;;;;;;11.97;8.50;;;;;;;8.13;100.00;98417.50;5053463;28;20645;-65
2023/10/21 02:24:35;;;;;;;13.70;8.67;;;;;;;8.13;100.00;98420.06;5052893;28;20214;-67
2023/10/21 02:27:04;;;;;;;13.40;8.93;;;;;;;8.15;100.00;98417.47;5053386;28;20271;-63
2023/10/21 02:29:32;;;;;;;14.53;9.93;;;;;;;8.14;100.00;98436.31;5053345;28;20206;-65
2023/10/21 02:32:00;;;;;;;17.90;9.97;;;;;;;8.16;100.00;98443.06;5052175;28;20206;-65
2023/10/21 02:34:30;;;;;;;14.87;9.13;;;;;;;8.16;100.00;98443.06;5053213;28;20253;-65
2023/10/21 02:36:58;;;;;;;13.13;9.57;;;;;;;8.19;100.00;98442.16;5052712;28;20218;-65
2023/10/21 02:39:25;;;;;;;10.90;7.87;;;;;;;8.18;100.00;98438.75;5052989;28;20210;-65
2023/10/21 02:41:54;;;;;;;14.00;10.17;;;;;;;8.14;100.00;98432.03;5052855;28;20206;-65
2023/10/21 02:44:22;;;;;;;12.70;9.60;;;;;;;8.18;100.00;98443.88;5052777;28;20669;-64
2023/10/21 02:46:50;;;;;;;14.77;9.30;;;;;;;8.21;100.00;98454.06;5052798;28;20201;-64
2023/10/21 02:49:18;;;;;;;12.83;8.43;;;;;;;8.19;100.00;98466.09;5053012;28;20299;-64
2023/10/21 02:51:49;;;;;;;14.80;10.63;;;;;;;8.23;100.00;98462.53;5053136;28;20208;-64
2023/10/21 02:54:17;;;;;;;13.33;9.37;;;;;;;8.24;100.00;98455.69;5052752;28;20282;-66
2023/10/21 02:56:45;;;;;;;13.57;9.37;;;;;;;8.27;100.00;98447.06;5052342;28;20237;-63
2023/10/21 02:59:13;;;;;;;11.03;9.00;;;;;;;8.30;100.00;98441.84;5052422;28;20210;-65
2023/10/21 03:01:41;;;;;;;16.23;9.63;;;;;;;8.28;100.00;98438.47;5052027;28;20301;-64
2023/10/21 03:04:09;;;;;;;13.10;8.77;;;;;;;8.28;100.00;98438.47;5055948;28;20214;-66
2023/10/21 03:06:37;;;;;;;13.83;9.00;;;;;;;8.27;100.00;98431.69;5052317;28;20242;-65
2023/10/21 03:09:06;;;;;;;11.33;8.97;;;;;;;8.29;100.00;98440.19;5052295;28;20213;-66
2023/10/21 03:11:34;;;;;;;12.93;8.83;;;;;;;8.30;100.00;98435.00;5052447;28;20198;-64
2023/10/21 03:14:02;;;;;;;14.30;10.17;;;;;;;8.27;100.00;98450.47;5051892;28;20260;-64
2023/10/21 03:16:30;;;;;;;13.27;10.23;;;;;;;8.27;100.00;98449.63;5051827;28;20239;-65
2023/10/21 03:18:59;;;;;;;15.27;8.93;;;;;;;8.29;100.00;98442.75;5051939;28;20261;-66
2023/10/21 03:21:27;;;;;;;14.03;9.27;;;;;;;8.29;100.00;98435.06;5051801;28;20248;-64
2023/10/21 03:23:55;;;;;;;12.53;9.27;;;;;;;8.29;100.00;98430.75;5052131;28;20210;-66
2023/10/21 03:26:24;;;;;;;13.13;8.13;;;;;;;8.32;100.00;98442.63;5051848;28;20259;-64
2023/10/21 03:28:52;;;;;;;12.20;9.13;;;;;;;8.32;100.00;98455.47;5051626;28;20206;-66
2023/10/21 03:31:21;;;;;;;13.90;9.03;;;;;;;8.34;100.00;98456.28;5051691;28;20202;-65
2023/10/21 03:33:49;;;;;;;13.70;9.50;;;;;;;8.33;100.00;98447.75;5051457;28;20224;-64
2023/10/21 03:36:16;;;;;;;11.63;9.17;;;;;;;8.35;100.00;98456.22;5051879;28;20657;-64
2023/10/21 03:38:44;;;;;;;11.70;8.93;;;;;;;8.37;100.00;98458.78;5051831;28;20660;-64
2023/10/21 03:41:13;;;;;;;12.30;8.87;;;;;;;8.39;100.00;98462.97;5051998;28;20602;-66
2023/10/21 03:43:42;;;;;;;11.23;8.63;;;;;;;8.38;100.00;98469.00;5051741;28;20232;-66
2023/10/21 03:46:14;;;;;;;15.17;9.40;;;;;;;8.39;100.00;98467.28;5051762;28;20570;-64
2023/10/21 03:48:43;;;;;;;10.63;8.37;;;;;;;8.40;100.00;98469.81;5051553;28;20202;-64
2023/10/21 03:51:12;;;;;;;11.67;8.97;;;;;;;8.41;100.00;98473.22;5051460;28;20198;-64
2023/10/21 03:53:41;;;;;;;14.17;8.30;;;;;;;8.41;100.00;98480.91;5051489;28;20236;-65
2023/10/21 03:56:10;;;;;;;15.30;9.00;;;;;;;8.43;100.00;98486.84;5050819;28;20573;-64
2023/10/21 03:58:38;;;;;;;11.50;8.47;;;;;;;8.44;100.00;98485.97;5051752;28;20731;-62
2023/10/21 04:01:08;;;;;;;11.40;8.93;;;;;;;8.43;100.00;98486.84;5066138;28;20553;-64
2023/10/21 04:03:37;;;;;;;12.70;8.70;;;;;;;8.44;100.00;98493.69;5061081;28;20241;-65
2023/10/21 04:06:08;;;;;;;15.17;9.20;;;;;;;8.45;100.00;98495.34;5053746;28;20214;-63
2023/10/21 04:08:37;;;;;;;12.67;9.33;;;;;;;8.44;100.00;98480.84;5051242;28;20259;-63
2023/10/21 04:11:05;;;;;;;11.73;9.20;;;;;;;8.46;100.00;98485.03;5051122;28;20216;-63
2023/10/21 04:13:33;;;;;;;16.63;9.63;;;;;;;8.46;100.00;98495.28;5050959;28;20233;-64
2023/10/21 04:16:03;;;;;;;12.90;8.90;;;;;;;8.42;100.00;98488.56;5051097;28;20285;-65
2023/10/21 04:18:33;;;;;;;14.13;9.80;;;;;;;8.44;100.00;98491.94;5051125;28;20309;-64
2023/10/21 04:21:01;;;;;;;11.67;8.80;;;;;;;8.44;100.00;98491.94;5051422;28;20596;-65
2023/10/21 04:23:29;;;;;;;13.43;9.50;;;;;;;8.44;100.00;98491.09;5056597;28;20634;-64
2023/10/21 04:25:57;;;;;;;14.73;9.40;;;;;;;8.44;100.00;98493.69;5058071;28;20214;-63
2023/10/21 04:28:25;;;;;;;11.07;9.37;;;;;;;8.42;100.00;98490.28;5050797;28;20603;-64
2023/10/21 04:30:53;;;;;;;13.03;9.43;;;;;;;8.45;100.00;98497.91;5051064;28;20285;-65
2023/10/21 04:33:21;;;;;;;12.83;10.07;;;;;;;8.48;100.00;98497.84;5050784;28;20212;-65
2023/10/21 04:35:51;;;;;;;13.97;9.87;;;;;;;8.53;100.00;98500.25;5035923;28;20205;-64
2023/10/21 04:38:19;;;;;;;11.63;9.70;;;;;;;8.54;100.00;98512.22;5050977;28;20275;-65
2023/10/21 04:40:47;;;;;;;13.83;9.93;;;;;;;8.54;100.00;98502.78;5050777;28;20294;-64
2023/10/21 04:43:15;;;;;;;13.37;9.37;;;;;;;8.54;100.00;98505.34;5051165;28;20570;-64
2023/10/21 04:45:43;;;;;;;13.80;9.17;;;;;;;8.53;100.00;98498.53;5050966;28;20198;-64
2023/10/21 04:48:11;;;;;;;13.97;9.60;;;;;;;8.53;100.00;98492.56;5050854;28;20637;-63
2023/10/21 04:50:39;;;;;;;15.43;9.07;;;;;;;8.55;100.00;98498.50;5050996;28;20590;-65
2023/10/21 04:53:09;;;;;;;14.90;9.50;;;;;;;8.56;100.00;98505.31;5050202;28;20256;-66
2023/10/21 04:55:36;;;;;;;13.53;9.70;;;;;;;8.57;100.00;98512.97;5050857;28;20704;-63
2023/10/21 04:58:04;;;;;;;14.33;9.67;;;;;;;8.58;100.00;98519.81;5050957;28;20218;-64
2023/10/21 05:00:34;;;;;;;14.43;8.90;;;;;;;8.56;100.00;98523.28;5050575;28;20202;-64
2023/10/21 05:03:02;;;;;;;12.63;9.47;;;;;;;8.57;100.00;98533.50;5036760;28;20264;-64
2023/10/21 05:05:30;;;;;;;15.43;10.33;;;;;;;8.58;100.00;98532.66;5050830;28;20198;-64
2023/10/21 05:07:58;;;;;;;12.93;9.37;;;;;;;8.57;100.00;98518.09;5053235;28;20201;-66
2023/10/21 05:10:27;;;;;;;13.13;9.83;;;;;;;8.58;100.00;98529.19;5054805;28;20677;-64
2023/10/21 05:12:55;;;;;;;14.83;10.20;;;;;;;8.58;100.00;98535.22;5054500;28;20601;-65
2023/10/21 05:15:24;;;;;;;12.17;8.90;;;;;;;8.60;100.00;98532.59;5055313;28;20649;-65
2023/10/21 05:17:52;;;;;;;14.60;10.27;;;;;;;8.60;100.00;98563.38;5054270;28;20202;-67
2023/10/21 05:20:20;;;;;;;13.10;9.87;;;;;;;8.64;100.00;98559.84;5054126;28;20224;-65
2023/10/21 05:22:48;;;;;;;13.00;9.27;;;;;;;8.65;100.00;98551.25;5054271;28;20210;-65
2023/10/21 05:25:16;;;;;;;13.03;9.60;;;;;;;8.64;100.00;98550.41;5054549;28;20209;-64
2023/10/21 05:27:46;;;;;;;14.60;9.97;;;;;;;8.62;100.00;98544.50;5054016;28;20198;-65
2023/10/21 05:30:14;;;;;;;13.27;9.97;;;;;;;8.63;100.00;98546.19;5054077;28;20661;-64
2023/10/21 05:32:43;;;;;;;16.17;10.17;;;;;;;8.61;100.00;98547.94;5054381;28;20653;-64
2023/10/21 05:35:11;;;;;;;12.77;9.00;;;;;;;8.61;100.00;98547.94;5054172;28;20640;-64
2023/10/21 05:37:39;;;;;;;13.33;9.80;;;;;;;8.61;100.00;98541.97;5054157;28;20229;-65
2023/10/21 05:40:09;;;;;;;11.67;9.47;;;;;;;8.60;100.00;98548.81;5053651;28;20232;-65
2023/10/21 05:42:37;;;;;;;11.47;9.37;;;;;;;8.63;100.00;98560.75;5047793;28;20302;-64
2023/10/21 05:45:08;;;;;;;16.63;10.17;;;;;;;8.63;100.00;98565.88;5044608;28;20671;-67
2023/10/21 05:47:35;;;;;;;15.63;10.67;;;;;;;8.59;100.00;98541.19;5058755;28;20214;-64
2023/10/21 05:50:04;;;;;;;13.47;9.97;;;;;;;8.64;100.00;98568.41;5053880;28;20289;-65
2023/10/21 05:52:32;;;;;;;14.23;10.27;;;;;;;8.64;100.00;98575.25;5053485;28;20731;-65
2023/10/21 05:55:01;;;;;;;15.27;10.60;;;;;;;8.65;100.00;98590.63;5053449;28;20324;-64
2023/10/21 05:57:29;;;;;;;12.47;9.47;;;;;;;8.69;100.00;98591.41;5053341;28;20264;-64
2023/10/21 05:59:57;;;;;;;15.73;10.83;;;;;;;8.70;100.00;98586.22;5053723;28;20226;-65
2023/10/21 06:02:27;;;;;;;12.37;9.93;;;;;;;8.70;100.00;98583.63;5053595;28;20610;-66
2023/10/21 06:04:55;;;;;;;17.17;11.17;;;;;;;8.73;100.00;98584.44;5053797;28;20210;-66
2023/10/21 06:07:23;;;;;;;13.53;10.23;;;;;;;8.76;100.00;98604.88;5053591;28;20547;-68
2023/10/21 06:09:53;;;;;;;17.60;11.33;;;;;;;8.78;100.00;98605.69;5051727;28;20657;-67
2023/10/21 06:12:21;;;;;;;13.93;10.20;;;;;;;8.77;100.00;98592.03;5054995;28;20292;-65
2023/10/21 06:14:50;;;;;;;14.37;10.50;;;;;;;8.79;100.00;98589.41;5056442;28;20251;-64
2023/10/21 06:17:18;;;;;;;14.70;11.03;;;;;;;8.80;100.00;98601.34;5059848;28;20297;-64
2023/10/21 06:19:48;;;;;;;14.03;9.37;;;;;;;8.81;100.00;98608.19;5056710;28;20214;-64
2023/10/21 06:22:16;;;;;;;14.63;10.60;;;;;;;8.82;100.00;98609.88;5053105;28;20248;-65
2023/10/21 06:24:44;;;;;;;14.13;10.90;;;;;;;8.79;100.00;98608.22;5053026;28;20213;-64
2023/10/21 06:27:12;;;;;;;17.20;11.40;;;;;;;8.80;100.00;98601.34;5053040;28;20225;-66
2023/10/21 06:29:40;;;;;;;15.27;10.93;;;;;;;8.82;100.00;98592.72;5052820;28;20214;-68
2023/10/21 06:32:09;;;;;;;13.03;10.50;;;;;;;8.86;100.00;98593.47;5053197;28;20619;-64
2023/10/21 06:34:38;;;;;;;15.23;11.50;;;;;;;8.88;100.00;98614.84;5053005;28;20602;-64
2023/10/21 06:37:07;;;;;;;15.10;10.77;;;;;;;8.89;100.00;98611.38;5052743;28;20206;-64
2023/10/21 06:39:35;;;;;;;13.03;10.43;;;;;;;8.89;100.00;98630.19;5051654;28;20632;-65
2023/10/21 06:42:04;;;;;;;14.00;10.30;;;;;;;8.93;100.00;98634.38;5055813;28;20227;-64
2023/10/21 06:44:32;;;;;;;18.20;11.50;;;;;;;8.95;100.00;98631.78;5052824;28;20252;-65
2023/10/21 06:47:00;;;;;;;14.67;10.87;;;;;;;8.95;100.00;98621.50;5052824;28;20589;-65
2023/10/21 06:49:28;;;;;;;14.47;11.17;;;;;;;8.99;100.00;98633.38;5052629;28;20285;-65
2023/10/21 06:51:56;;;;;;;16.43;10.63;;;;;;;9.02;100.00;98638.44;5052855;28;20213;-64
2023/10/21 06:54:26;;;;;;;16.70;10.90;;;;;;;9.04;100.00;98644.34;5052450;28;20573;-65
2023/10/21 06:56:55;;;;;;;13.07;10.57;;;;;;;9.08;100.00;98658.78;5062043;28;20244;-65
2023/10/21 06:59:23;;;;;;;16.07;10.57;;;;;;;9.10;100.00;98651.06;5052760;28;20689;-67
2023/10/21 07:01:51;;;;;;;16.03;10.17;;;;;;;9.11;100.00;98666.41;5052498;28;20229;-68
2023/10/21 07:04:20;;;;;;;11.87;9.23;;;;;;;9.14;100.00;98670.63;5052465;28;20673;-69
2023/10/21 07:06:48;;;;;;;14.73;9.93;;;;;;;9.15;100.00;98675.72;5052107;28;20653;-69
2023/10/21 07:09:17;;;;;;;15.40;10.53;;;;;;;9.16;100.00;98682.53;5052225;28;20668;-65
2023/10/21 07:11:46;;;;;;;14.07;10.53;;;;;;;9.19;100.00;98687.59;5052229;28;20212;-66
2023/10/21 07:14:15;;;;;;;13.27;10.57;;;;;;;9.22;100.00;98691.81;5051915;28;20704;-66
2023/10/21 07:16:43;;;;;;;14.50;10.50;;;;;;;9.24;100.00;98687.47;5051159;28;20716;-67
2023/10/21 07:19:12;;;;;;;15.03;9.87;;;;;;;9.27;100.00;98684.81;5052948;28;20695;-66
2023/10/21 07:21:41;;;;;;;15.83;10.27;;;;;;;9.30;100.00;98687.31;5051523;28;20568;-66
2023/10/21 07:24:11;;;;;;;14.57;10.17;;;;;;;9.35;100.00;98689.72;5051889;28;20212;-69
2023/10/21 07:26:39;;;;;;;15.73;10.07;;;;;;;9.39;100.00;98686.22;5051757;28;20208;-67
2023/10/21 07:29:08;;;;;;;15.90;10.87;;;;;;;9.43;100.00;98685.25;5051591;28;20217;-67
2023/10/21 07:31:38;;;;;;;16.20;10.73;;;;;;;9.47;100.00;98684.25;5049725;28;20588;-70
2023/10/21 07:34:07;;;;;;;15.47;10.80;;;;;;;9.56;100.00;98699.41;5052860;28;20202;-68
2023/10/21 07:36:35;;;;;;;11.77;9.43;;;;;;;9.59;100.00;98696.75;5051153;28;20212;-66
2023/10/21 07:39:04;;;;;;;17.20;10.83;;;;;;;9.59;100.00;98699.31;5051891;28;20236;-67
2023/10/21 07:41:33;;;;;;;12.13;10.13;;;;;;;9.60;100.00;98698.44;5051856;28;20313;-66
2023/10/21 07:44:02;;;;;;;13.83;10.23;;;;;;;9.53;100.00;98676.34;5066611;28;20210;-66
2023/10/21 07:46:31;;;;;;;12.37;10.60;;;;;;;9.55;100.00;98684.88;5051845;28;20207;-66
2023/10/21 07:48:59;;;;;;;13.13;9.60;;;;;;;9.53;100.00;98686.63;5050722;28;20221;-68
2023/10/21 07:51:29;;;;;;;20.77;11.07;;;;;;;9.59;100.00;98673.63;5051600;28;20214;-66
2023/10/21 07:53:57;;;;;;;12.37;10.47;;;;;;;9.59;100.00;98686.47;5050434;28;20260;-66
2023/10/21 07:56:25;;;;;;;12.33;10.70;;;;;;;9.62;100.00;98701.81;5050571;28;20674;-65
2023/10/21 07:58:53;;;;;;;15.07;10.77;;;;;;;9.67;100.00;98709.38;5048955;28;20252;-64
2023/10/21 08:01:22;;;;;;;15.50;10.00;;;;;;;9.70;100.00;98721.31;5051845;28;20588;-64
2023/10/21 08:03:51;;;;;;;16.93;11.17;;;;;;;9.72;100.00;98715.25;5051661;28;20234;-64
2023/10/21 08:06:19;;;;;;;14.37;10.77;;;;;;;9.73;100.00;98724.66;5050893;28;20732;-68
2023/10/21 08:08:48;;;;;;;13.63;10.50;;;;;;;9.74;100.00;98720.34;5050454;28;20202;-70
2023/10/21 08:11:16;;;;;;;17.73;12.63;;;;;;;9.76;100.00;98718.56;5051000;28;20198;-68
2023/10/21 08:13:44;;;;;;;16.47;11.60;;;;;;;9.78;100.00;98729.66;5051238;28;20706;-69
2023/10/21 08:16:12;;;;;;;15.03;11.37;;;;;;;9.79;100.00;98728.75;5050600;28;20217;-69
2023/10/21 08:18:40;;;;;;;16.97;11.97;;;;;;;9.81;100.00;98729.56;5050804;28;20283;-69
2023/10/21 08:21:10;;;;;;;16.27;11.90;;;;;;;9.83;100.00;98718.34;5050405;28;20226;-69
2023/10/21 08:23:42;;;;;;;17.70;12.13;;;;;;;9.88;100.00;98728.50;5051288;28;20202;-69
2023/10/21 08:26:10;;;;;;;18.60;11.53;;;;;;;9.95;100.00;98737.72;5051132;28;20628;-67
2023/10/21 08:28:38;;;;;;;17.17;12.40;;;;;;;9.98;100.00;98749.63;5051720;28;20205;-64
2023/10/21 08:31:08;;;;;;;13.53;10.80;;;;;;;9.98;100.00;98745.34;5050904;28;20198;-65
2023/10/21 08:33:36;;;;;;;15.93;12.17;;;;;;;10.01;100.00;98749.53;5065618;28;20284;-64
2023/10/21 08:36:05;;;;;;;14.60;11.33;;;;;;;10.03;99.96;98743.47;5050986;28;20296;-64
2023/10/21 08:38:34;;;;;;;15.87;11.10;;;;;;;10.07;99.91;98754.50;5051212;28;20297;-68
2023/10/21 08:41:04;;;;;;;13.63;10.77;;;;;;;10.08;99.59;98754.44;5051619;28;20233;-68
2023/10/21 08:43:32;;;;;;;13.00;10.77;;;;;;;10.11;99.73;98754.38;5055851;28;20209;-67
2023/10/21 08:46:00;;;;;;;16.30;11.23;;;;;;;10.12;99.13;98750.06;5042175;28;20731;-73
2023/10/21 08:48:29;;;;;;;14.23;10.80;;;;;;;10.12;99.28;98756.03;5055201;28;20210;-66
2023/10/21 08:50:59;;;;;;;15.33;11.37;;;;;;;10.09;99.23;98771.59;5055003;28;20202;-68
2023/10/21 08:53:28;;;;;;;13.97;10.70;;;;;;;10.11;99.33;98771.53;5062169;28;20212;-63
2023/10/21 08:55:57;;;;;;;13.23;10.77;;;;;;;10.15;99.05;98773.13;5054745;28;20561;-65
2023/10/21 08:58:29;;;;;;;14.43;10.57;;;;;;;10.15;99.54;98779.13;5054972;28;20628;-64
2023/10/21 09:00:57;;;;;;;15.10;11.20;;;;;;;10.15;99.42;98779.13;5054493;28;20224;-64
2023/10/21 09:03:26;;;;;;;14.13;10.53;;;;;;;10.17;99.24;98781.66;5054530;28;20209;-64
2023/10/21 09:06:10;;;;;;;13.00;10.73;;;;;;;10.17;99.10;98779.09;5053702;28;20301;-64
2023/10/21 09:08:40;;;;;;;13.80;10.20;;;;;;;10.18;99.55;98772.22;5049548;28;20669;-67
2023/10/21 09:11:11;;;;;;;11.60;10.00;;;;;;;10.21;99.37;98769.53;5054055;28;20229;-64
2023/10/21 09:13:41;;;;;;;14.00;11.23;;;;;;;10.25;99.75;98765.97;5054067;28;20685;-66
2023/10/21 09:16:20;;;;;;;14.13;10.53;;;;;;;10.29;99.64;98801.06;5054232;28;20537;-65
2023/10/21 09:18:59;;;;;;;12.77;10.53;;;;;;;10.33;99.46;98811.22;5054355;28;20202;-64
2023/10/21 09:21:33;;;;;;;15.03;11.30;;;;;;;10.39;99.69;98816.19;5054218;28;20241;-65
2023/10/21 09:24:02;;;;;;;12.20;10.37;;;;;;;10.49;99.48;98815.91;5054236;28;20570;-66
2023/10/21 09:26:36;;;;;;;12.70;10.20;;;;;;;10.55;99.05;98819.13;5054589;28;20723;-66
2023/10/21 09:29:06;;;;;;;13.43;11.33;;;;;;;10.63;98.98;98818.88;5054190;28;20259;-67
2023/10/21 09:31:46;;;;;;;11.30;10.03;;;;;;;10.71;98.92;98841.81;5053374;28;20213;-67
2023/10/21 09:34:27;;;;;;;12.83;11.30;;;;;;;10.79;98.32;98845.88;5054302;28;20214;-66
2023/10/21 09:36:57;;;;;;;14.90;10.57;;;;;;;10.95;98.45;98859.09;5054040;28;20569;-69
2023/10/21 09:39:27;;;;;;;13.23;10.37;;;;;;;11.07;97.70;98863.84;5054366;28;20336;-65
2023/10/21 09:41:58;;;;;;;13.67;10.63;;;;;;;11.16;96.77;98861.84;5053947;28;20214;-65
2023/10/21 09:44:26;;;;;;;12.10;10.10;;;;;;;11.19;95.59;98860.03;5053986;28;20256;-64
2023/10/21 09:46:56;;;;;;;12.20;9.20;;;;;;;11.22;95.26;98859.09;5053520;28;20229;-65
2023/10/21 09:49:27;;;;;;;12.20;9.73;;;;;;;11.22;94.47;98856.50;5042513;28;20259;-65
2023/10/21 09:52:04;;;;;;;12.27;9.60;;;;;;;11.21;94.57;98855.66;5053224;28;20229;-67
2023/10/21 09:54:41;;;;;;;13.23;10.03;;;;;;;11.22;94.49;98854.75;5039314;28;20198;-66
2023/10/21 09:57:12;;;;;;;11.30;9.93;;;;;;;11.20;94.14;98858.31;5054279;28;20213;-67
2023/10/21 09:59:41;;;;;;;11.77;9.60;;;;;;;11.20;94.31;98850.56;5040329;28;20645;-65
2023/10/21 10:02:14;;;;;;;11.67;9.80;;;;;;;11.21;94.58;98855.66;5054000;28;20857;-64
2023/10/21 10:04:42;;;;;;;17.23;10.33;;;;;;;11.23;94.81;98853.03;5053629;28;20225;-66
2023/10/21 10:07:12;;;;;;;11.93;10.47;;;;;;;11.29;95.33;98845.09;5053576;28;20206;-64
2023/10/21 10:10:02;;;;;;;15.13;10.00;;;;;;;11.40;94.96;98850.72;5053985;28;20614;-65
2023/10/21 10:12:37;;;;;;;13.90;10.60;;;;;;;11.53;94.98;98846.00;5053481;28;20617;-65
2023/10/21 10:15:28;;;;;;;14.83;10.37;;;;;;;11.71;94.40;98839.34;5044878;28;20209;-68
2023/10/21 10:17:56;;;;;;;13.30;10.17;;;;;;;11.86;93.70;98833.69;5053631;28;20555;-64
2023/10/21 10:20:26;;;;;;;12.87;10.00;;;;;;;11.96;92.07;98834.16;5053053;28;20566;-65
2023/10/21 10:22:59;;;;;;;14.23;9.83;;;;;;;12.08;91.63;98857.81;5053245;28;20299;-66
2023/10/21 10:25:31;;;;;;;11.90;9.30;;;;;;;12.18;90.04;98858.28;5053104;28;20206;-65
2023/10/21 10:28:07;;;;;;;11.27;9.03;;;;;;;12.27;89.55;98859.72;5052343;28;20288;-63
2023/10/21 10:30:38;;;;;;;13.10;10.30;;;;;;;12.34;89.59;98840.50;5052977;28;20213;-63
2023/10/21 10:33:12;;;;;;;13.23;9.43;;;;;;;12.46;89.18;98839.19;5053063;28;20209;-66
2023/10/21 10:35:46;;;;;;;12.93;9.80;;;;;;;12.66;89.31;98836.66;5052914;28;20288;-66
2023/10/21 10:38:24;;;;;;;9.63;8.63;;;;;;;12.88;87.75;98830.63;5053163;28;20212;-63
2023/10/21 10:40:59;;;;;;;12.47;8.50;;;;;;;12.99;86.97;98846.56;5052824;28;20233;-64
2023/10/21 10:43:29;;;;;;;13.40;10.17;;;;;;;13.03;85.74;98846.38;5053191;28;20609;-65
2023/10/21 10:45:57;;;;;;;11.87;8.57;;;;;;;13.09;85.63;98857.38;5052823;28;20759;-64
2023/10/21 10:48:25;;;;;;;11.17;9.30;;;;;;;13.11;84.84;98876.25;5052602;28;20577;-66
2023/10/21 10:50:59;;;;;;;16.23;10.47;;;;;;;13.08;85.00;98879.81;5052277;28;20233;-64
2023/10/21 10:53:27;;;;;;;11.80;10.07;;;;;;;13.04;84.66;98868.75;5052351;28;20209;-66
2023/10/21 10:55:55;;;;;;;13.93;10.43;;;;;;;12.99;84.55;98869.81;5052651;28;20202;-64
2023/10/21 10:58:26;;;;;;;13.07;10.10;;;;;;;12.92;85.19;98866.63;5052597;28;20232;-64
2023/10/21 11:00:57;;;;;;;15.27;11.07;;;;;;;12.88;85.51;98875.41;5052500;28;20229;-65
2023/10/21 11:03:27;;;;;;;11.77;9.97;;;;;;;12.90;86.46;98880.56;5052453;28;20240;-70
2023/10/21 11:05:57;;;;;;;11.43;10.30;;;;;;;12.92;85.95;98889.91;5052581;28;20198;-69
2023/10/21 11:08:27;;;;;;;14.90;10.40;;;;;;;12.93;86.10;98907.13;5053075;28;20193;-68
2023/10/21 11:11:02;;;;;;;18.83;11.73;;;;;;;12.94;86.38;98897.63;5052428;28;20217;-65
2023/10/21 11:13:30;;;;;;;15.77;10.43;;;;;;;12.96;86.93;98904.41;5052124;28;20239;-67
2023/10/21 11:16:04;;;;;;;13.87;10.70;;;;;;;13.04;86.76;98898.94;5052113;28;20206;-64
2023/10/21 11:18:33;;;;;;;13.67;11.03;;;;;;;13.03;86.12;98898.09;5051880;28;20209;-69
2023/10/21 11:21:01;;;;;;;13.30;11.37;;;;;;;12.99;85.37;98899.09;5052395;28;20206;-68
2023/10/21 11:23:30;;;;;;;14.60;11.00;;;;;;;12.93;86.05;98901.13;5052352;28;20256;-69
2023/10/21 11:26:00;;;;;;;18.63;11.40;;;;;;;12.88;86.48;98898.69;5052429;28;20217;-69
2023/10/21 11:28:29;;;;;;;13.07;11.50;;;;;;;12.86;86.32;98917.78;5052197;28;20206;-69
2023/10/21 11:30:58;;;;;;;14.37;11.90;;;;;;;12.83;86.89;98913.53;5052400;28;20204;-69